Česky Dansk Deutsch English Español Suomi Français Magyar Italiano Nederlands norsk Polski Português svenska Türkçe

 

Het Weer

Aden (Yemen)

11:00, 25 maart 2015 (GMT)

NWNNE
WE
SWSSE
Home            
Aden Mokha Taiz Mokha Djibouti \ Ambouli Djibouti Berbera Assab Ataq Marib Hodeidah Sana'A Burao Hargeisa Al-Hazm Jiggiga Dire Dawa Sa'Ada / Sadah Riyan Gizan Sayun Najran Sharurah

Om een weerknop op uw website of weblog te plaatsen, copieer onderstaande code en plak die in uw pagina. In het eerste vakje staat HTML-code, in het tweede vakje UBB-code.


Add to Google

Details

Wind speed:4 bf, 13 kn, 6.7 m/s, 15.0 miles/h, 24.1 km/h
Wind direction:SSE, 150°
Visibility:Greater than 10000 m, 10 km, 32800 ft, 6.2 miles
Clouds:Ein wenig bewölkt at 2000 ft, 610 m
Temperature:29°C, 84°F
Gefühlte Temperatur:31°C, 87°F
Dew-point:20°C, 68°F
Atmospheric pressure:1012 hPa, 759.1 mmHg, 29.88 inHg, 0.999 atm
Relative humidity:58.4 %
METAR:OYAA 251100Z 15013KT 9999 FEW020 29/20 Q1012 NOSIG

Snelkoppelingen

Actuele weersinformatie van de hele wereld. Voeg locaties toe met het plus (+) symbool. Deze snelkoppelingen kunnen worden toegevoegd aan Google.

Lid van de Technetium groep

website free tracking
StatCounter NetStat W3C Validator

14-04-2021 09:02:28
astro.technetium.be money.technetium.be phote.technetium.be tafeltennistafel.technetium.be www.ligfiets.net